createdAt,value
2022-09-21T00:01:53.333Z,1.40
2022-09-21T00:04:20.660Z,1.70
2022-09-21T00:06:55.390Z,1.80
2022-09-21T00:09:22.567Z,2.10
2022-09-21T00:11:49.739Z,1.80
2022-09-21T00:14:18.460Z,1.70
2022-09-21T00:16:45.927Z,1.88
2022-09-21T00:19:13.724Z,1.60
2022-09-21T00:21:42.991Z,1.90
2022-09-21T00:24:16.432Z,1.67
2022-09-21T00:26:54.431Z,1.92
2022-09-21T00:29:28.931Z,1.67
2022-09-21T00:31:56.184Z,1.80
2022-09-21T00:34:23.500Z,1.60
2022-09-21T00:36:50.830Z,1.65
2022-09-21T00:39:18.152Z,1.67
2022-09-21T00:41:45.817Z,1.83
2022-09-21T00:44:18.866Z,1.55
2022-09-21T00:46:49.124Z,1.60
2022-09-21T00:49:17.867Z,2.05
2022-09-21T00:51:46.707Z,1.70
2022-09-21T00:54:22.029Z,1.90
2022-09-21T00:56:53.294Z,1.58
2022-09-21T00:59:21.964Z,1.98
2022-09-21T01:01:51.524Z,1.40
2022-09-21T01:04:19.584Z,1.70
2022-09-21T01:06:48.049Z,1.70
2022-09-21T01:09:19.852Z,1.88
2022-09-21T01:12:18.656Z,1.50
2022-09-21T01:15:16.355Z,1.58
2022-09-21T01:18:01.020Z,1.88
2022-09-21T01:20:40.293Z,1.60
2022-09-21T01:23:25.936Z,1.92
2022-09-21T01:26:10.084Z,2.10
2022-09-21T01:29:02.099Z,1.83
2022-09-21T01:31:37.079Z,1.80
2022-09-21T01:34:13.998Z,2.15
2022-09-21T01:36:44.915Z,1.95
2022-09-21T01:39:15.053Z,1.80
2022-09-21T01:41:49.070Z,2.17
2022-09-21T01:44:20.931Z,2.22
2022-09-21T01:46:49.270Z,1.92
2022-09-21T01:49:34.618Z,1.85
2022-09-21T01:52:10.379Z,2.10
2022-09-21T01:54:47.509Z,2.38
2022-09-21T01:57:34.789Z,1.90
2022-09-21T02:00:02.419Z,1.85
2022-09-21T02:02:55.468Z,1.63
2022-09-21T02:05:25.509Z,1.88
2022-09-21T02:07:55.720Z,2.22
2022-09-21T02:10:30.836Z,2.15
2022-09-21T02:13:06.337Z,1.85
2022-09-21T02:16:12.609Z,2.17
2022-09-21T02:18:54.739Z,2.00
2022-09-21T02:21:38.126Z,1.77
2022-09-21T02:24:53.518Z,2.45
2022-09-21T02:27:46.019Z,2.67
2022-09-21T02:30:21.928Z,2.08
2022-09-21T02:33:03.696Z,1.50
2022-09-21T02:36:11.883Z,2.10
2022-09-21T02:39:02.540Z,1.88
2022-09-21T02:41:47.653Z,2.22
2022-09-21T02:44:35.895Z,2.05
2022-09-21T02:47:15.156Z,1.95
2022-09-21T02:49:49.059Z,2.30
2022-09-21T02:52:24.306Z,1.85
2022-09-21T02:54:53.616Z,2.50
2022-09-21T02:57:27.306Z,1.92
2022-09-21T02:59:57.416Z,2.05
2022-09-21T03:02:24.580Z,1.98
2022-09-21T03:04:51.749Z,1.75
2022-09-21T03:07:19.101Z,1.90
2022-09-21T03:09:46.712Z,1.85
2022-09-21T03:12:14.055Z,1.85
2022-09-21T03:14:41.157Z,1.95
2022-09-21T03:17:14.255Z,1.67
2022-09-21T03:19:41.434Z,2.00
2022-09-21T03:22:09.472Z,1.58
2022-09-21T03:24:48.635Z,1.83
2022-09-21T03:27:21.290Z,2.03
2022-09-21T03:29:59.977Z,2.60
2022-09-21T03:32:29.343Z,1.85
2022-09-21T03:34:56.367Z,1.67
2022-09-21T03:37:23.603Z,1.75
2022-09-21T03:39:50.756Z,1.70
2022-09-21T03:42:17.827Z,1.67
2022-09-21T03:44:46.158Z,2.00
2022-09-21T03:47:14.247Z,2.10
2022-09-21T03:49:41.542Z,1.80
2022-09-21T03:52:12.583Z,1.85
2022-09-21T03:54:39.931Z,1.90
2022-09-21T03:57:12.663Z,2.10
2022-09-21T03:59:39.753Z,2.00
2022-09-21T04:02:07.114Z,2.20
2022-09-21T04:04:34.423Z,2.05
2022-09-21T04:07:02.535Z,2.42
2022-09-21T04:09:30.740Z,2.20
2022-09-21T04:11:59.986Z,2.22
2022-09-21T04:14:30.126Z,2.70
2022-09-21T04:16:58.166Z,2.42
2022-09-21T04:19:27.656Z,2.88
2022-09-21T04:22:00.297Z,3.15
2022-09-21T04:24:33.642Z,2.85
2022-09-21T04:27:12.031Z,2.63
2022-09-21T04:29:51.698Z,2.83
2022-09-21T04:32:25.263Z,2.70
2022-09-21T04:34:52.866Z,2.42
2022-09-21T04:37:29.634Z,2.55
2022-09-21T04:39:56.890Z,2.30
2022-09-21T04:42:24.328Z,2.10
2022-09-21T04:44:55.700Z,1.95
2022-09-21T04:47:42.716Z,2.10
2022-09-21T04:50:27.031Z,2.17
2022-09-21T04:53:08.830Z,2.00
2022-09-21T04:55:38.875Z,2.55
2022-09-21T04:58:21.270Z,2.00
2022-09-21T05:00:56.305Z,2.10
2022-09-21T05:03:35.323Z,2.13
2022-09-21T05:06:40.886Z,2.03
2022-09-21T05:09:33.714Z,1.85
2022-09-21T05:12:21.390Z,2.03
2022-09-21T05:14:57.552Z,2.38
2022-09-21T05:17:26.338Z,2.53
2022-09-21T05:19:53.939Z,2.53
2022-09-21T05:22:30.243Z,2.45
2022-09-21T05:25:01.770Z,2.10
2022-09-21T05:27:41.089Z,2.20
2022-09-21T05:30:20.229Z,1.90
2022-09-21T05:33:25.091Z,2.30
2022-09-21T05:36:36.601Z,2.03
2022-09-21T05:39:10.373Z,2.05
2022-09-21T05:41:57.395Z,2.30
2022-09-21T05:45:05.662Z,2.50
2022-09-21T05:52:22.874Z,1.90
2022-09-21T05:58:51.447Z,2.20
2022-09-21T06:01:53.310Z,1.90
2022-09-21T06:05:00.028Z,2.00
2022-09-21T06:08:39.755Z,2.13
2022-09-21T06:11:31.249Z,1.95
2022-09-21T06:14:26.283Z,2.00
2022-09-21T06:24:12.742Z,1.60
2022-09-21T06:26:47.353Z,1.73
2022-09-21T06:29:59.094Z,1.77
2022-09-21T06:32:58.398Z,1.80
2022-09-21T06:35:45.712Z,1.73
2022-09-21T06:38:46.291Z,2.00
2022-09-21T06:41:47.413Z,2.17
2022-09-21T06:44:26.512Z,1.40
2022-09-21T06:47:47.899Z,2.40
2022-09-21T06:52:54.614Z,1.65
2022-09-21T06:55:44.302Z,1.67
2022-09-21T06:58:45.846Z,1.50
2022-09-21T07:01:22.687Z,1.60
2022-09-21T07:04:12.481Z,1.60
2022-09-21T07:06:46.210Z,1.77
2022-09-21T07:12:01.806Z,1.40
2022-09-21T07:14:33.851Z,1.75
2022-09-21T07:17:06.602Z,1.77
2022-09-21T07:19:38.076Z,1.95
2022-09-21T07:22:13.083Z,2.40
2022-09-21T07:29:00.489Z,1.63
2022-09-21T07:31:43.699Z,1.60
2022-09-21T07:34:28.396Z,1.60
2022-09-21T07:37:10.476Z,1.75
2022-09-21T07:39:57.142Z,1.83
2022-09-21T07:42:43.368Z,1.35
2022-09-21T07:45:17.683Z,1.70
2022-09-21T07:48:01.379Z,1.40
2022-09-21T07:50:52.919Z,1.60
2022-09-21T07:53:38.339Z,1.80
2022-09-21T07:56:16.139Z,1.85
2022-09-21T07:59:16.463Z,1.95
2022-09-21T08:01:57.922Z,2.08
2022-09-21T08:04:42.687Z,2.20
2022-09-21T08:07:29.418Z,2.47
2022-09-21T08:10:04.907Z,1.92
2022-09-21T08:12:58.173Z,1.80
2022-09-21T08:15:49.900Z,2.15
2022-09-21T08:18:30.008Z,2.10
2022-09-21T08:21:12.034Z,1.60
2022-09-21T08:23:44.313Z,2.05
2022-09-21T08:26:47.905Z,2.28
2022-09-21T08:29:25.221Z,2.25
2022-09-21T08:32:07.583Z,2.15
2022-09-21T08:34:46.320Z,2.03
2022-09-21T08:37:37.545Z,2.00
2022-09-21T08:40:31.174Z,2.00
2022-09-21T08:43:20.586Z,1.92
2022-09-21T08:46:11.275Z,2.25
2022-09-21T08:49:22.274Z,2.00
2022-09-21T08:52:31.119Z,1.70
2022-09-21T08:55:29.774Z,1.60
2022-09-21T08:58:22.028Z,2.00
2022-09-21T09:01:36.277Z,1.70
2022-09-21T09:04:26.876Z,1.92
2022-09-21T09:07:10.000Z,2.03
2022-09-21T09:09:49.332Z,2.05
2022-09-21T09:13:23.585Z,1.85
2022-09-21T09:20:09.108Z,2.58
2022-09-21T09:22:55.757Z,3.08
2022-09-21T09:25:46.993Z,2.88
2022-09-21T09:28:53.371Z,2.20
2022-09-21T09:31:34.413Z,2.35
2022-09-21T09:34:15.527Z,2.20
2022-09-21T09:36:58.832Z,2.50
2022-09-21T09:39:32.597Z,3.03
2022-09-21T09:42:48.983Z,2.67
2022-09-21T09:45:28.797Z,2.30
2022-09-21T09:48:53.904Z,2.95
2022-09-21T09:53:05.752Z,2.47
2022-09-21T10:03:29.093Z,1.95
2022-09-21T10:17:40.871Z,1.40
2022-09-21T11:02:32.457Z,1.67
2022-09-21T11:08:03.052Z,1.88
2022-09-21T11:11:19.520Z,1.88
2022-09-21T11:14:37.636Z,2.17
2022-09-21T11:18:16.411Z,2.28
2022-09-21T11:21:29.822Z,2.30
2022-09-21T11:47:40.857Z,1.67
2022-09-21T11:51:18.512Z,2.05
2022-09-21T11:57:42.722Z,1.70
2022-09-21T12:00:22.845Z,1.63
2022-09-21T12:03:20.694Z,1.65
2022-09-21T12:10:01.444Z,1.42
2022-09-21T12:12:50.155Z,1.20
2022-09-21T12:16:06.507Z,1.10
2022-09-21T12:18:59.764Z,1.27
2022-09-21T12:21:39.824Z,1.00
2022-09-21T12:25:09.902Z,1.27
2022-09-21T12:30:54.611Z,1.60
2022-09-21T12:34:05.124Z,1.55
2022-09-21T12:37:26.190Z,1.02
2022-09-21T12:40:10.585Z,0.98
2022-09-21T12:42:54.804Z,0.60
2022-09-21T12:46:06.425Z,0.90
2022-09-21T12:48:51.765Z,0.90
2022-09-21T12:51:44.853Z,0.95
2022-09-21T12:54:47.024Z,0.93
2022-09-21T12:58:13.672Z,0.73
2022-09-21T13:00:52.794Z,1.13
2022-09-21T13:03:34.979Z,1.30
2022-09-21T13:06:37.240Z,1.20
2022-09-21T13:09:20.105Z,1.27
2022-09-21T13:12:19.475Z,1.40
2022-09-21T13:15:17.958Z,1.83
2022-09-21T13:18:35.802Z,1.45
2022-09-21T13:21:27.240Z,1.65
2022-09-21T13:24:27.996Z,1.50
2022-09-21T13:27:13.122Z,1.80
2022-09-21T13:33:28.293Z,1.48
2022-09-21T13:36:49.140Z,1.70
2022-09-21T13:39:30.490Z,1.58
2022-09-21T13:42:31.426Z,1.98
2022-09-21T13:45:09.741Z,1.80
2022-09-21T13:47:42.490Z,1.55
2022-09-21T13:51:15.252Z,1.58
2022-09-21T13:53:46.914Z,1.85
2022-09-21T13:56:39.926Z,2.35
2022-09-21T13:59:31.111Z,1.73
2022-09-21T14:02:31.225Z,1.50
2022-09-21T14:05:07.092Z,1.55
2022-09-21T14:08:31.061Z,1.27
2022-09-21T14:11:28.679Z,1.60
2022-09-21T14:14:33.562Z,1.48
2022-09-21T14:37:32.709Z,1.10
2022-09-21T14:40:53.623Z,1.20
2022-09-21T14:44:25.417Z,1.40
2022-09-21T14:48:43.540Z,1.75
2022-09-21T14:51:28.554Z,1.33
2022-09-21T14:59:09.001Z,1.30
2022-09-21T15:01:42.583Z,1.30
2022-09-21T15:04:45.843Z,1.98
2022-09-21T15:08:05.562Z,1.70
2022-09-21T15:11:07.963Z,1.50
2022-09-21T15:14:10.340Z,1.40
2022-09-21T15:16:50.302Z,1.30
2022-09-21T15:19:51.924Z,2.03
2022-09-21T15:22:36.781Z,1.30
2022-09-21T15:25:44.646Z,1.48
2022-09-21T15:29:09.767Z,1.40
2022-09-21T15:31:59.956Z,1.90
2022-09-21T15:42:06.959Z,2.08
2022-09-21T15:47:50.760Z,1.85
2022-09-21T15:50:28.153Z,2.50
2022-09-21T15:53:11.707Z,2.38
2022-09-21T15:56:15.198Z,1.95
2022-09-21T15:58:57.909Z,1.67
2022-09-21T16:01:36.229Z,2.10
2022-09-21T16:04:52.609Z,2.35
2022-09-21T16:10:59.609Z,2.47
2022-09-21T16:15:03.226Z,2.58
2022-09-21T16:18:27.448Z,2.75
2022-09-21T16:21:52.100Z,2.35
2022-09-21T16:24:42.600Z,2.90
2022-09-21T16:27:29.310Z,2.20
2022-09-21T16:30:06.849Z,2.78
2022-09-21T16:32:34.943Z,2.45
2022-09-21T16:35:29.524Z,3.40
2022-09-21T16:37:59.206Z,2.35
2022-09-21T16:40:38.831Z,2.90
2022-09-21T16:43:09.002Z,2.88
2022-09-21T16:45:36.543Z,3.72
2022-09-21T16:48:35.245Z,3.22
2022-09-21T16:51:15.997Z,3.58
2022-09-21T16:54:23.350Z,3.00
2022-09-21T16:57:27.728Z,3.53
2022-09-21T17:00:35.924Z,3.40
2022-09-21T17:06:56.268Z,3.47
2022-09-21T17:10:21.126Z,3.95
2022-09-21T17:13:27.115Z,3.92
2022-09-21T17:27:38.156Z,4.45
2022-09-21T17:30:47.824Z,4.20
2022-09-21T17:33:42.702Z,4.30
2022-09-21T18:37:12.754Z,3.72
2022-09-21T19:19:14.014Z,8.23
2022-09-21T19:22:27.971Z,5.15
2022-09-21T19:29:42.075Z,5.10
2022-09-21T19:32:59.788Z,5.28
2022-09-21T19:35:40.711Z,5.85
2022-09-21T19:38:11.727Z,5.28
2022-09-21T19:40:55.772Z,4.53
2022-09-21T19:59:40.867Z,4.57
2022-09-21T20:02:29.989Z,4.57
2022-09-21T20:04:58.724Z,4.43
2022-09-21T20:07:38.920Z,4.70
2022-09-21T20:13:22.151Z,4.35
2022-09-21T20:16:05.002Z,4.97
2022-09-21T20:18:41.110Z,4.53
2022-09-21T20:21:14.965Z,4.18
2022-09-21T20:23:42.711Z,4.40
2022-09-21T20:26:34.320Z,4.55
2022-09-21T20:29:02.910Z,5.20
2022-09-21T20:31:33.580Z,4.97
2022-09-21T20:34:03.294Z,4.65
2022-09-21T20:36:30.770Z,5.20
2022-09-21T20:39:06.718Z,6.30
2022-09-21T20:41:37.272Z,5.38
2022-09-21T20:44:11.606Z,5.43
2022-09-21T20:46:44.592Z,5.75
2022-09-21T20:49:24.017Z,5.25
2022-09-21T20:51:51.675Z,5.82
2022-09-21T20:54:23.517Z,6.28
2022-09-21T20:57:33.997Z,5.85
2022-09-21T21:00:01.653Z,6.25
2022-09-21T21:02:31.659Z,5.80
2022-09-21T21:04:59.215Z,5.82
2022-09-21T21:07:30.654Z,5.88
2022-09-21T21:10:07.494Z,6.15
2022-09-21T21:12:34.942Z,5.82
2022-09-21T21:15:04.429Z,5.28
2022-09-21T21:17:31.592Z,6.93
2022-09-21T21:20:00.415Z,6.47
2022-09-21T21:22:28.138Z,7.30
2022-09-21T21:24:55.413Z,8.15
2022-09-21T21:27:35.215Z,7.55
2022-09-21T21:30:09.604Z,6.65
2022-09-21T21:32:39.383Z,8.00
2022-09-21T21:35:09.900Z,8.18
2022-09-21T21:37:37.556Z,7.22
2022-09-21T21:40:07.208Z,6.82
2022-09-21T21:42:34.967Z,7.00
2022-09-21T21:45:02.371Z,6.38
2022-09-21T21:47:40.649Z,7.32
2022-09-21T21:50:18.811Z,6.53
2022-09-21T21:52:48.967Z,6.60
2022-09-21T21:55:16.287Z,5.95
2022-09-21T21:57:44.766Z,5.88
2022-09-21T22:00:18.318Z,5.47
2022-09-21T22:02:52.064Z,5.78
2022-09-21T22:05:26.324Z,5.22
2022-09-21T22:07:59.074Z,5.93
2022-09-21T22:10:35.088Z,4.90
2022-09-21T22:13:12.347Z,4.88
2022-09-21T22:15:44.959Z,5.00
2022-09-21T22:18:17.419Z,5.03
2022-09-21T22:20:46.222Z,4.65
2022-09-21T22:23:22.799Z,5.07
2022-09-21T22:25:59.028Z,4.78
2022-09-21T22:28:45.529Z,4.80
2022-09-21T22:31:21.785Z,4.40
2022-09-21T22:33:49.739Z,4.70
2022-09-21T22:36:25.821Z,4.28
2022-09-21T22:38:53.872Z,4.38
2022-09-21T22:41:23.802Z,4.07
2022-09-21T22:44:06.233Z,4.22
2022-09-21T22:46:33.936Z,4.00
2022-09-21T22:49:10.162Z,4.28
2022-09-21T22:51:46.955Z,4.60
2022-09-21T22:54:19.720Z,4.15
2022-09-21T22:56:51.586Z,4.05
2022-09-21T22:59:19.219Z,4.55
2022-09-21T23:01:46.928Z,4.38
2022-09-21T23:04:14.526Z,4.97
2022-09-21T23:06:45.569Z,5.10
2022-09-21T23:09:15.942Z,5.50
2022-09-21T23:11:49.438Z,5.78
2022-09-21T23:14:17.160Z,5.82
2022-09-21T23:16:45.485Z,5.25
2022-09-21T23:19:16.050Z,4.82
2022-09-21T23:21:44.980Z,5.03
2022-09-21T23:24:14.421Z,6.35
2022-09-21T23:26:42.259Z,5.57
2022-09-21T23:29:14.938Z,5.47
2022-09-21T23:31:51.175Z,5.45
2022-09-21T23:34:18.229Z,5.43
2022-09-21T23:36:45.565Z,5.38
2022-09-21T23:39:14.471Z,5.68
2022-09-21T23:41:41.593Z,6.18
2022-09-21T23:44:08.994Z,5.57
2022-09-21T23:46:37.805Z,5.85
2022-09-21T23:49:13.938Z,5.10
2022-09-21T23:51:42.731Z,5.82
2022-09-21T23:54:15.533Z,5.40
2022-09-21T23:56:44.564Z,5.50
2022-09-21T23:59:11.894Z,5.53
